Christine Anderson — WCN2606 — position and weather

sailwx.info

Track history (hours):
 
Tides and Currents Weather Stations Pressure Air Temp Water Temp Dewpoint Dewpoint Depression Visibility Wind Speed Wind Dir Waves Ship Positions

Christine Anderson

Owner: PIERCE, COUNTY OF, TACOMA, WA. More information available from US FCC via Universal Licensing System and Coast Guard Vessel Documentation Center.

Last reported at 2018-Mar-27 13:17 UTC. Time now 2018-May-27 17:41 UTC.
Position N 47°11' W 122°37'.
Warning: this ship's position is months out of date.

Date/timePositionNaut miles runAvg speedWind from/ knotsBaromVisibWave heightAir tempDewpointWater temp
2018-Mar-27 13:17N 47°11' W 122°37'0 0.2
2018-Mar-27 12:59N 47°11' W 122°37'1 1.2
2018-Mar-27 12:25N 47°11' W 122°38'1 3.6
2018-Mar-27 12:00N 47°11' W 122°40'3 4.9
2018-Mar-27 11:27N 47°10' W 122°36'1 0.1
2018-Mar-27 04:22N 47°11' W 122°37'2 5.2
2018-Mar-27 04:00N 47°11' W 122°40'2 3.1
2018-Mar-27 03:29N 47°11' W 122°38'0 0.7
2018-Mar-27 03:00N 47°11' W 122°38'1 1.1
2018-Mar-27 02:23N 47°10' W 122°38'2 3.8
2018-Mar-27 01:55N 47°11' W 122°40'2 2.9
2018-Mar-27 01:12N 47°11' W 122°37'2 4.6
2018-Mar-27 00:45N 47°11' W 122°40'311.2
2018-Mar-27 00:30N 47°11' W 122°36'1 1.9
2018-Mar-27 00:00N 47°11' W 122°37'1 1.2
2018-Mar-26 23:29N 47°11' W 122°38'1 1.1
2018-Mar-26 23:00N 47°11' W 122°38'0 0.3
2018-Mar-26 22:27N 47°11' W 122°38'0 1.0
2018-Mar-26 22:00N 47°11' W 122°38'1 0.9
2018-Mar-26 20:29N 47°11' W 122°36'  
2018-Mar-22 16:45N 47°10' W 122°36'0 0.1
2018-Mar-22 15:19N 47°11' W 122°36'0 0.0
2018-Mar-20 18:22N 47°11' W 122°36'0 0.0
2018-Mar-20 01:19N 47°10' W 122°36'0 0.0
2018-Mar-20 00:57N 47°10' W 122°36'0 0.0
2018-Mar-19 18:11N 47°10' W 122°36'0 0.0
2018-Mar-19 18:00N 47°10' W 122°36'0 0.0
2018-Mar-18 17:34N 47°10' W 122°36'0 0.0
2018-Mar-18 17:12N 47°10' W 122°36'0 0.0
2018-Mar-18 09:50N 47°10' W 122°36'0 0.0
2018-Mar-18 09:30N 47°10' W 122°36'0 0.0
2018-Mar-18 00:38N 47°10' W 122°36'0 0.0
2018-Mar-17 23:30N 47°10' W 122°36'0 0.0
2018-Mar-17 22:46N 47°10' W 122°36'0 0.0
2018-Mar-17 22:22N 47°10' W 122°36'0 0.0
2018-Mar-17 21:57N 47°10' W 122°36'  
Track history (hours):
 
Tides and Currents Weather Stations Pressure Air Temp Water Temp Dewpoint Dewpoint Depression Visibility Wind Speed Wind Dir Waves Ship Positions

Christine Anderson

Owner: PIERCE, COUNTY OF, TACOMA, WA. More information available from US FCC via Universal Licensing System and Coast Guard Vessel Documentation Center.

Last reported at 2018-Mar-27 13:17 UTC. Time now 2018-May-27 17:41 UTC.
Position N 47°11' W 122°37'.
Warning: this ship's position is months out of date.

Date/timePositionNaut miles runAvg speedWind from/ knotsBaromVisibWave heightAir tempDewpointWater temp
2018-Mar-27 13:17N 47°11' W 122°37'0 0.2
2018-Mar-27 12:59N 47°11' W 122°37'1 1.2
2018-Mar-27 12:25N 47°11' W 122°38'1 3.6
2018-Mar-27 12:00N 47°11' W 122°40'3 4.9
2018-Mar-27 11:27N 47°10' W 122°36'1 0.1
2018-Mar-27 04:22N 47°11' W 122°37'2 5.2
2018-Mar-27 04:00N 47°11' W 122°40'2 3.1
2018-Mar-27 03:29N 47°11' W 122°38'0 0.7
2018-Mar-27 03:00N 47°11' W 122°38'1 1.1
2018-Mar-27 02:23N 47°10' W 122°38'2 3.8
2018-Mar-27 01:55N 47°11' W 122°40'2 2.9
2018-Mar-27 01:12N 47°11' W 122°37'2 4.6
2018-Mar-27 00:45N 47°11' W 122°40'311.2
2018-Mar-27 00:30N 47°11' W 122°36'1 1.9
2018-Mar-27 00:00N 47°11' W 122°37'1 1.2
2018-Mar-26 23:29N 47°11' W 122°38'1 1.1
2018-Mar-26 23:00N 47°11' W 122°38'0 0.3
2018-Mar-26 22:27N 47°11' W 122°38'0 1.0
2018-Mar-26 22:00N 47°11' W 122°38'1 0.9
2018-Mar-26 20:29N 47°11' W 122°36'  
2018-Mar-22 16:45N 47°10' W 122°36'0 0.1
2018-Mar-22 15:19N 47°11' W 122°36'0 0.0
2018-Mar-20 18:22N 47°11' W 122°36'0 0.0
2018-Mar-20 01:19N 47°10' W 122°36'0 0.0
2018-Mar-20 00:57N 47°10' W 122°36'0 0.0
2018-Mar-19 18:11N 47°10' W 122°36'0 0.0
2018-Mar-19 18:00N 47°10' W 122°36'0 0.0
2018-Mar-18 17:34N 47°10' W 122°36'0 0.0
2018-Mar-18 17:12N 47°10' W 122°36'0 0.0
2018-Mar-18 09:50N 47°10' W 122°36'0 0.0
2018-Mar-18 09:30N 47°10' W 122°36'0 0.0
2018-Mar-18 00:38N 47°10' W 122°36'0 0.0
2018-Mar-17 23:30N 47°10' W 122°36'0 0.0
2018-Mar-17 22:46N 47°10' W 122°36'0 0.0
2018-Mar-17 22:22N 47°10' W 122°36'0 0.0
2018-Mar-17 21:57N 47°10' W 122°36'  

Dump ship's entire track history